createdAt,value
2024-04-18T00:12:19.323Z,7.98
2024-04-18T01:56:51.828Z,8.43
2024-04-18T02:56:35.372Z,7.55
2024-04-18T03:58:49.460Z,7.49
2024-04-18T04:31:34.452Z,7.87
2024-04-18T04:59:34.896Z,7.28
2024-04-18T05:28:42.473Z,7.26
2024-04-18T05:57:45.385Z,7.49
2024-04-18T06:26:46.880Z,8.41
2024-04-18T06:55:31.453Z,6.93
2024-04-18T07:24:33.136Z,6.18
2024-04-18T07:53:39.127Z,6.67
2024-04-18T08:22:50.415Z,7.01
2024-04-18T08:51:57.970Z,7.58
2024-04-18T09:20:54.800Z,7.75
2024-04-18T09:49:59.436Z,7.4
2024-04-18T10:19:10.187Z,8.15
2024-04-18T10:48:14.646Z,9.04
2024-04-18T11:17:08.689Z,9.78
2024-04-18T11:46:13.206Z,11.65
2024-04-18T12:15:08.832Z,11.82
2024-04-18T12:44:07.935Z,13.29
2024-04-18T13:12:56.242Z,10.08
2024-04-18T13:42:15.551Z,11.41
2024-04-18T14:11:17.103Z,12.29
2024-04-18T14:40:14.254Z,12.21
2024-04-18T15:09:14.993Z,12.24
2024-04-18T15:38:20.579Z,12.86
2024-04-18T16:07:40.958Z,15.08
2024-04-18T16:37:11.316Z,15.99
2024-04-18T17:05:25.692Z,14.16
2024-04-18T17:33:50.125Z,12.99
2024-04-18T18:02:54.447Z,12.94
2024-04-18T18:31:43.651Z,12.36
2024-04-18T19:00:40.381Z,12.04
2024-04-18T19:30:19.178Z,11.34
2024-04-18T19:58:49.675Z,10.34
2024-04-18T20:27:54.303Z,10.08
2024-04-18T20:56:58.297Z,9.83
2024-04-18T21:26:12.979Z,9.95
2024-04-18T21:56:13.192Z,9.66
2024-04-18T22:24:42.446Z,9.17
2024-04-18T22:53:44.747Z,8.84
2024-04-18T23:22:41.180Z,8.56
2024-04-18T23:51:52.126Z,8.39
